createdAt,value
2018-02-03T00:12:34.033Z,1.88
2018-02-03T00:23:24.470Z,1.80
2018-02-03T00:34:14.657Z,1.84
2018-02-03T00:48:15.950Z,1.76
2018-02-03T00:59:06.194Z,1.79
2018-02-03T01:13:05.915Z,1.52
2018-02-03T01:27:06.400Z,1.52
2018-02-03T01:37:56.566Z,1.65
2018-02-03T01:51:56.689Z,1.81
2018-02-03T02:05:57.486Z,1.71
2018-02-03T02:19:58.199Z,1.54
2018-02-03T02:33:58.167Z,1.77
2018-02-03T02:35:03.121Z,1.49
2018-02-03T02:49:08.500Z,1.54
2018-02-03T02:59:59.165Z,1.54
2018-02-03T03:10:49.579Z,1.58
2018-02-03T03:21:40.292Z,1.66
2018-02-03T03:32:30.467Z,1.63
2018-02-03T03:43:21.124Z,1.57
2018-02-03T03:57:22.183Z,1.64
2018-02-03T04:11:23.393Z,1.43
2018-02-03T04:25:23.812Z,1.17
2018-02-03T04:39:23.712Z,1.28
2018-02-03T04:53:29.362Z,1.29
2018-02-03T05:04:19.642Z,1.37
2018-02-03T05:21:35.667Z,1.23
2018-02-03T05:32:26.571Z,0.96
2018-02-03T05:43:17.017Z,1.01
2018-02-03T05:54:07.577Z,0.87
2018-02-03T06:08:08.206Z,1.05
2018-02-03T06:18:58.405Z,0.97
2018-02-03T06:29:48.783Z,0.96
2018-02-03T06:43:54.877Z,0.88
2018-02-03T06:56:38.947Z,0.75
2018-02-03T06:57:43.675Z,0.75
2018-02-03T06:58:48.302Z,0.75
2018-02-03T06:59:53.056Z,0.74
2018-02-03T07:00:57.792Z,0.74
2018-02-03T07:02:02.660Z,0.71
2018-02-03T07:03:07.253Z,0.66
2018-02-03T07:04:11.842Z,0.62
2018-02-03T07:05:16.528Z,0.65
2018-02-03T07:06:21.191Z,0.66
2018-02-03T07:07:25.855Z,0.68
2018-02-03T07:08:30.872Z,0.63
2018-02-03T07:09:35.575Z,0.63
2018-02-03T07:10:40.278Z,0.60
2018-02-03T07:11:44.935Z,0.58
2018-02-03T07:12:49.701Z,0.55
2018-02-03T07:13:54.374Z,0.59
2018-02-03T07:14:59.464Z,0.63
2018-02-03T07:16:04.152Z,0.63
2018-02-03T07:17:08.924Z,0.61
2018-02-03T07:18:13.710Z,0.58
2018-02-03T07:19:18.460Z,0.59
2018-02-03T07:20:23.232Z,0.56
2018-02-03T07:21:28.238Z,0.53
2018-02-03T07:22:32.956Z,0.48
2018-02-03T07:23:37.763Z,0.46
2018-02-03T07:24:42.666Z,0.46
2018-02-03T07:25:47.609Z,0.50
2018-02-03T07:26:52.362Z,0.51
2018-02-03T07:27:57.504Z,0.49
2018-02-03T07:29:02.381Z,0.49
2018-02-03T07:30:08.016Z,0.49
2018-02-03T07:31:12.703Z,0.53
2018-02-03T07:32:17.741Z,0.51
2018-02-03T07:33:23.850Z,0.58
2018-02-03T07:34:29.140Z,0.57
2018-02-03T07:35:33.819Z,0.59
2018-02-03T07:36:40.503Z,0.59
2018-02-03T07:37:45.261Z,0.56
2018-02-03T07:38:49.405Z,0.61
2018-02-03T07:39:54.069Z,0.63
2018-02-03T07:40:59.119Z,0.65
2018-02-03T07:42:04.023Z,0.71
2018-02-03T07:43:08.832Z,0.76
2018-02-03T07:44:13.809Z,0.79
2018-02-03T07:45:18.623Z,0.85
2018-02-03T07:46:23.471Z,0.90
2018-02-03T07:47:28.596Z,0.90
2018-02-03T07:48:33.470Z,0.93
2018-02-03T07:49:38.336Z,0.93
2018-02-03T07:50:43.175Z,0.94
2018-02-03T07:51:47.985Z,1.03
2018-02-03T07:52:52.856Z,1.07
2018-02-03T07:53:57.951Z,1.10
2018-02-03T07:55:02.970Z,1.19
2018-02-03T07:56:07.892Z,1.16
2018-02-03T07:57:12.828Z,1.05
2018-02-03T07:58:17.662Z,1.01
2018-02-03T07:59:22.542Z,0.97
2018-02-03T08:00:27.643Z,1.03
2018-02-03T08:01:32.479Z,0.99
2018-02-03T08:02:37.315Z,0.99
2018-02-03T08:03:42.150Z,1.02
2018-02-03T08:04:46.938Z,1.02
2018-02-03T08:05:51.733Z,1.05
2018-02-03T08:06:56.882Z,1.09
2018-02-03T08:08:01.689Z,1.18
2018-02-03T08:09:06.663Z,1.19
2018-02-03T08:10:11.450Z,1.18
2018-02-03T08:11:16.332Z,1.13
2018-02-03T08:12:21.188Z,1.04
2018-02-03T08:13:26.279Z,1.02
2018-02-03T08:14:31.096Z,1.03
2018-02-03T08:15:36.037Z,0.92
2018-02-03T08:16:40.887Z,0.86
2018-02-03T08:17:45.766Z,0.89
2018-02-03T08:18:50.581Z,0.95
2018-02-03T08:19:55.685Z,0.83
2018-02-03T08:21:00.582Z,0.82
2018-02-03T08:22:05.411Z,0.81
2018-02-03T08:23:10.250Z,0.86
2018-02-03T08:24:14.993Z,0.88
2018-02-03T08:25:20.580Z,0.96
2018-02-03T08:26:25.680Z,1.00
2018-02-03T08:27:30.446Z,1.01
2018-02-03T08:28:35.293Z,1.04
2018-02-03T08:29:40.107Z,1.08
2018-02-03T08:30:44.918Z,1.07
2018-02-03T08:31:50.068Z,1.10
2018-02-03T08:32:54.871Z,1.11
2018-02-03T08:33:59.883Z,1.10
2018-02-03T08:35:04.756Z,1.11
2018-02-03T08:36:09.555Z,1.16
2018-02-03T08:37:14.441Z,1.25
2018-02-03T08:38:19.247Z,1.29
2018-02-03T08:39:24.015Z,1.33
2018-02-03T08:40:28.887Z,1.35
2018-02-03T08:41:33.706Z,1.34
2018-02-03T08:42:38.638Z,1.37
2018-02-03T08:43:43.751Z,1.37
2018-02-03T08:44:48.564Z,1.39
2018-02-03T08:45:53.386Z,1.33
2018-02-03T08:46:58.257Z,1.32
2018-02-03T08:48:03.131Z,1.26
2018-02-03T08:49:07.952Z,1.25
2018-02-03T08:50:13.083Z,1.22
2018-02-03T08:51:17.884Z,1.15
2018-02-03T08:52:22.656Z,1.07
2018-02-03T08:53:27.583Z,0.95
2018-02-03T08:54:32.420Z,1.02
2018-02-03T08:55:37.225Z,0.98
2018-02-03T08:56:42.872Z,0.97
2018-02-03T08:57:47.687Z,1.10
2018-02-03T08:58:52.610Z,1.10
2018-02-03T08:59:57.758Z,1.06
2018-02-03T09:01:02.895Z,1.03
2018-02-03T09:02:07.696Z,1.01
2018-02-03T09:03:13.015Z,1.01
2018-02-03T09:04:17.827Z,1.02
2018-02-03T09:05:22.647Z,1.02
2018-02-03T09:06:27.446Z,1.06
2018-02-03T09:07:32.262Z,0.98
2018-02-03T09:08:36.984Z,0.98
2018-02-03T09:09:41.819Z,0.98
2018-02-03T09:10:47.391Z,1.00
2018-02-03T09:11:56.885Z,1.08
2018-02-03T09:13:01.753Z,1.14
2018-02-03T09:14:06.664Z,1.15
2018-02-03T09:15:11.785Z,1.14
2018-02-03T09:16:16.606Z,1.27
2018-02-03T09:17:21.419Z,1.25
2018-02-03T09:18:26.251Z,1.26
2018-02-03T09:19:31.080Z,1.16
2018-02-03T09:20:35.868Z,1.20
2018-02-03T09:21:41.943Z,1.23
2018-02-03T09:22:46.755Z,1.31
2018-02-03T09:23:51.532Z,1.25
2018-02-03T09:24:56.248Z,1.30
2018-02-03T09:26:01.045Z,1.30
2018-02-03T09:27:05.823Z,1.25
2018-02-03T09:28:10.848Z,1.28
2018-02-03T09:29:15.612Z,1.28
2018-02-03T09:30:20.367Z,1.30
2018-02-03T09:31:25.559Z,1.31
2018-02-03T09:32:30.377Z,1.29
2018-02-03T09:33:35.185Z,1.20
2018-02-03T09:34:40.257Z,1.19
2018-02-03T09:35:45.072Z,1.32
2018-02-03T09:36:49.884Z,1.39
2018-02-03T09:37:56.241Z,1.46
2018-02-03T09:39:01.093Z,1.44
2018-02-03T09:40:05.939Z,1.36
2018-02-03T09:41:11.186Z,1.31
2018-02-03T09:42:16.003Z,1.30
2018-02-03T09:43:20.861Z,1.16
2018-02-03T09:44:25.680Z,1.18
2018-02-03T09:45:30.635Z,1.30
2018-02-03T09:46:35.431Z,1.48
2018-02-03T09:47:40.640Z,1.62
2018-02-03T09:48:45.475Z,1.64
2018-02-03T09:49:50.374Z,1.62
2018-02-03T09:50:55.218Z,1.46
2018-02-03T09:52:00.045Z,1.34
2018-02-03T09:53:04.942Z,1.31
2018-02-03T09:54:10.051Z,1.25
2018-02-03T09:55:14.874Z,1.30
2018-02-03T09:56:19.735Z,1.25
2018-02-03T09:57:24.550Z,1.15
2018-02-03T09:58:29.460Z,1.16
2018-02-03T09:59:34.377Z,1.17
2018-02-03T10:00:39.582Z,1.16
2018-02-03T10:01:44.872Z,1.17
2018-02-03T10:02:49.739Z,1.25
2018-02-03T10:03:54.548Z,1.34
2018-02-03T10:04:59.440Z,1.38
2018-02-03T10:06:04.213Z,1.46
2018-02-03T10:07:09.347Z,1.38
2018-02-03T10:08:14.155Z,1.26
2018-02-03T10:09:19.001Z,1.23
2018-02-03T10:10:23.789Z,1.38
2018-02-03T10:11:28.532Z,1.39
2018-02-03T10:12:33.342Z,1.33
2018-02-03T10:13:38.460Z,1.27
2018-02-03T10:14:43.235Z,1.28
2018-02-03T10:15:48.026Z,1.21
2018-02-03T10:16:52.969Z,1.27
2018-02-03T10:17:57.685Z,1.20
2018-02-03T10:19:02.496Z,1.24
2018-02-03T10:20:07.691Z,1.20
2018-02-03T10:21:12.578Z,1.28
2018-02-03T10:22:17.371Z,1.30
2018-02-03T10:23:22.137Z,1.37
2018-02-03T10:24:26.875Z,1.49
2018-02-03T10:25:31.647Z,1.37
2018-02-03T10:26:36.918Z,1.41
2018-02-03T10:27:41.675Z,1.49
2018-02-03T10:28:46.501Z,1.61
2018-02-03T10:29:51.198Z,1.76
2018-02-03T10:30:56.045Z,1.86
2018-02-03T10:32:00.806Z,1.90
2018-02-03T10:33:05.826Z,2.00
2018-02-03T10:34:12.487Z,2.03
2018-02-03T10:35:17.485Z,1.94
2018-02-03T10:36:22.393Z,1.92
2018-02-03T10:37:27.169Z,2.00
2018-02-03T10:38:31.918Z,1.96
2018-02-03T10:39:37.144Z,1.78
2018-02-03T10:40:41.975Z,1.81
2018-02-03T10:41:46.805Z,1.95
2018-02-03T10:42:51.598Z,1.99
2018-02-03T10:43:56.400Z,1.89
2018-02-03T10:45:01.153Z,1.89
2018-02-03T10:46:06.309Z,1.85
2018-02-03T10:47:11.196Z,1.65
2018-02-03T10:48:15.916Z,1.79
2018-02-03T10:49:20.819Z,1.94
2018-02-03T10:50:25.721Z,2.21
2018-02-03T10:51:30.646Z,2.35
2018-02-03T10:52:35.888Z,2.32
2018-02-03T10:53:41.361Z,2.49
2018-02-03T10:54:46.184Z,2.49
2018-02-03T10:55:51.828Z,2.44
2018-02-03T10:56:56.849Z,2.14
2018-02-03T10:58:02.573Z,2.14
2018-02-03T10:59:07.982Z,2.30
2018-02-03T11:00:12.733Z,2.32
2018-02-03T11:01:17.517Z,2.24
2018-02-03T11:02:22.557Z,2.04
2018-02-03T11:03:27.572Z,2.10
2018-02-03T11:04:32.472Z,1.99
2018-02-03T11:05:37.976Z,1.85
2018-02-03T11:06:43.081Z,1.86
2018-02-03T11:07:47.876Z,1.73
2018-02-03T11:08:52.792Z,1.74
2018-02-03T11:09:57.667Z,1.85
2018-02-03T11:11:02.538Z,2.00
2018-02-03T11:12:07.746Z,2.12
2018-02-03T11:13:12.669Z,2.01
2018-02-03T11:14:17.533Z,1.84
2018-02-03T11:15:22.398Z,1.77
2018-02-03T11:16:27.355Z,1.83
2018-02-03T11:17:32.051Z,1.85
2018-02-03T11:18:37.065Z,1.86
2018-02-03T11:19:41.831Z,1.88
2018-02-03T11:20:46.685Z,1.97
2018-02-03T11:21:51.514Z,1.96
2018-02-03T11:22:56.427Z,1.87
2018-02-03T11:24:01.378Z,1.82
2018-02-03T11:25:06.608Z,1.86
2018-02-03T11:26:11.458Z,1.86
2018-02-03T11:27:16.296Z,1.82
2018-02-03T11:28:21.311Z,1.74
2018-02-03T11:29:26.150Z,1.68
2018-02-03T11:30:30.973Z,1.75
2018-02-03T11:31:36.293Z,1.82
2018-02-03T11:32:41.097Z,1.86
2018-02-03T11:33:45.946Z,1.90
2018-02-03T11:34:50.764Z,2.00
2018-02-03T11:35:55.390Z,2.08
2018-02-03T11:37:00.129Z,2.28
2018-02-03T11:38:05.156Z,2.45
2018-02-03T11:39:09.829Z,2.60
2018-02-03T11:40:14.504Z,2.73
2018-02-03T11:41:19.120Z,2.86
2018-02-03T11:42:23.758Z,2.70
2018-02-03T11:43:28.349Z,2.67
2018-02-03T11:44:33.457Z,2.66
2018-02-03T11:45:38.156Z,2.62
2018-02-03T11:46:42.923Z,2.60
2018-02-03T11:47:47.639Z,2.45
2018-02-03T11:48:52.448Z,2.17
2018-02-03T11:49:57.215Z,2.01
2018-02-03T11:51:02.349Z,1.99
2018-02-03T11:52:07.144Z,2.07
2018-02-03T11:53:11.800Z,2.22
2018-02-03T11:54:16.577Z,2.30
2018-02-03T11:55:21.358Z,2.37
2018-02-03T11:56:26.130Z,2.39
2018-02-03T11:57:31.952Z,2.42
2018-02-03T11:58:36.604Z,2.33
2018-02-03T11:59:41.344Z,2.24
2018-02-03T12:00:46.262Z,2.14
2018-02-03T12:01:51.100Z,2.16
2018-02-03T12:02:56.201Z,2.17
2018-02-03T12:04:01.473Z,2.12
2018-02-03T12:05:06.403Z,2.10
2018-02-03T12:06:11.228Z,2.06
2018-02-03T12:07:16.034Z,2.09
2018-02-03T12:08:20.854Z,2.03
2018-02-03T12:09:25.677Z,2.12
2018-02-03T12:10:30.940Z,2.25
2018-02-03T12:11:36.359Z,2.21
2018-02-03T12:12:41.198Z,2.01
2018-02-03T12:13:46.606Z,2.06
2018-02-03T12:14:51.443Z,2.24
2018-02-03T12:15:56.281Z,2.24
2018-02-03T12:17:01.484Z,2.31
2018-02-03T12:18:06.285Z,2.30
2018-02-03T12:19:11.072Z,2.32
2018-02-03T12:20:15.874Z,2.36
2018-02-03T12:21:21.028Z,2.43
2018-02-03T12:22:25.785Z,2.55
2018-02-03T12:23:30.931Z,2.56
2018-02-03T12:24:35.728Z,2.60
2018-02-03T12:25:40.524Z,2.48
2018-02-03T12:26:45.251Z,2.29
2018-02-03T12:27:49.992Z,2.26
2018-02-03T12:28:55.000Z,2.24
2018-02-03T12:29:59.822Z,2.21
2018-02-03T12:31:04.623Z,2.23
2018-02-03T12:32:09.517Z,2.30
2018-02-03T12:33:14.372Z,2.32
2018-02-03T12:34:19.821Z,2.46
2018-02-03T12:35:24.854Z,2.50
2018-02-03T12:36:29.744Z,2.51
2018-02-03T12:37:34.637Z,2.53
2018-02-03T12:38:39.416Z,2.53
2018-02-03T12:39:44.139Z,2.49
2018-02-03T12:40:48.862Z,2.64
2018-02-03T12:41:53.968Z,2.79
2018-02-03T12:42:58.545Z,2.84
2018-02-03T12:44:03.294Z,2.75
2018-02-03T12:45:07.919Z,2.82
2018-02-03T12:46:12.538Z,2.93
2018-02-03T12:47:17.115Z,2.77
2018-02-03T12:48:21.831Z,2.83
2018-02-03T12:49:26.685Z,2.81
2018-02-03T12:50:32.488Z,2.77
2018-02-03T12:51:37.468Z,2.75
2018-02-03T12:52:42.274Z,2.82
2018-02-03T12:53:47.345Z,2.73
2018-02-03T12:54:52.211Z,2.67
2018-02-03T12:55:57.007Z,2.75
2018-02-03T12:57:01.736Z,2.66
2018-02-03T12:58:06.559Z,2.54
2018-02-03T12:59:11.317Z,2.59
2018-02-03T13:00:16.348Z,2.40
2018-02-03T13:01:21.129Z,2.27
2018-02-03T13:02:25.875Z,2.42
2018-02-03T13:03:30.687Z,2.58
2018-02-03T13:04:35.484Z,2.62
2018-02-03T13:05:40.246Z,2.72
2018-02-03T13:06:45.083Z,2.79
2018-02-03T13:07:49.851Z,2.89
2018-02-03T13:08:54.633Z,2.92
2018-02-03T13:09:59.364Z,3.01
2018-02-03T13:11:04.065Z,2.87
2018-02-03T13:12:09.063Z,2.78
2018-02-03T13:13:13.819Z,2.65
2018-02-03T13:14:18.558Z,2.76
2018-02-03T13:15:23.398Z,2.81
2018-02-03T13:16:28.148Z,2.69
2018-02-03T13:17:33.198Z,2.84
2018-02-03T13:18:37.939Z,2.85
2018-02-03T13:19:42.773Z,3.00
2018-02-03T13:20:47.603Z,3.24
2018-02-03T13:21:52.376Z,3.49
2018-02-03T13:22:56.958Z,3.29
2018-02-03T13:24:02.033Z,3.17
2018-02-03T13:25:06.621Z,2.97
2018-02-03T13:26:11.359Z,2.95
2018-02-03T13:27:16.054Z,2.96
2018-02-03T13:28:20.982Z,3.01
2018-02-03T13:29:25.788Z,2.89
2018-02-03T13:30:31.184Z,2.99
2018-02-03T13:31:36.133Z,3.04
2018-02-03T13:32:40.985Z,3.10
2018-02-03T13:33:45.795Z,3.12
2018-02-03T13:34:50.654Z,3.16
2018-02-03T13:35:55.553Z,3.35
2018-02-03T13:37:00.637Z,3.54
2018-02-03T13:38:05.619Z,3.52
2018-02-03T13:39:10.485Z,3.24
2018-02-03T13:40:15.412Z,2.98
2018-02-03T13:41:20.221Z,2.93
2018-02-03T13:42:25.096Z,3.09
2018-02-03T13:43:30.197Z,3.12
2018-02-03T13:44:35.004Z,2.93
2018-02-03T13:45:39.794Z,2.80
2018-02-03T13:46:45.234Z,2.88
2018-02-03T13:47:50.048Z,2.91
2018-02-03T13:48:54.808Z,2.93
2018-02-03T13:49:59.914Z,2.84
2018-02-03T13:51:05.488Z,2.96
2018-02-03T13:52:10.718Z,2.80
2018-02-03T13:53:15.555Z,2.90
2018-02-03T13:54:20.483Z,2.94
2018-02-03T13:55:25.524Z,2.84
2018-02-03T13:56:30.738Z,2.95
2018-02-03T13:57:35.606Z,2.97
2018-02-03T13:58:40.414Z,2.90
2018-02-03T13:59:45.517Z,2.91
2018-02-03T14:00:50.279Z,2.95
2018-02-03T14:01:55.080Z,3.04
2018-02-03T14:02:59.889Z,3.21
2018-02-03T14:04:04.682Z,3.40
2018-02-03T14:05:09.519Z,3.49
2018-02-03T14:06:14.424Z,3.82
2018-02-03T14:07:19.170Z,4.36
2018-02-03T14:08:24.302Z,4.60
2018-02-03T14:09:29.739Z,4.46
2018-02-03T14:10:34.484Z,4.17
2018-02-03T14:11:39.389Z,4.15
2018-02-03T14:12:44.124Z,4.27
2018-02-03T14:13:49.039Z,4.03
2018-02-03T14:14:54.950Z,3.95
2018-02-03T14:16:00.134Z,3.78
2018-02-03T14:17:06.006Z,3.77
2018-02-03T14:18:10.792Z,4.14
2018-02-03T14:19:15.549Z,4.52
2018-02-03T14:20:20.347Z,4.30
2018-02-03T14:21:27.353Z,4.36
2018-02-03T14:22:32.534Z,4.50
2018-02-03T14:23:37.401Z,4.49
2018-02-03T14:24:46.144Z,4.53
2018-02-03T14:25:55.404Z,4.73
2018-02-03T14:27:00.141Z,4.91
2018-02-03T14:28:05.078Z,4.83
2018-02-03T14:29:10.289Z,4.68
2018-02-03T14:30:15.672Z,4.58
2018-02-03T14:31:20.392Z,4.22
2018-02-03T14:32:24.956Z,3.79
2018-02-03T14:33:29.647Z,3.50
2018-02-03T14:34:34.412Z,3.43
2018-02-03T14:35:39.479Z,3.33
2018-02-03T14:36:44.295Z,3.28
2018-02-03T14:37:49.005Z,3.23
2018-02-03T14:38:53.760Z,3.29
2018-02-03T14:39:58.889Z,3.38
2018-02-03T14:41:03.725Z,3.52
2018-02-03T14:42:08.852Z,3.62
2018-02-03T14:43:13.584Z,3.90
2018-02-03T14:44:18.308Z,3.79
2018-02-03T14:45:23.078Z,3.49
2018-02-03T14:46:27.855Z,3.47
2018-02-03T14:47:32.648Z,3.44
2018-02-03T14:48:37.768Z,3.61
2018-02-03T14:49:42.657Z,3.58
2018-02-03T14:50:47.413Z,3.61
2018-02-03T14:51:52.184Z,3.33
2018-02-03T14:52:56.971Z,3.33
2018-02-03T14:54:01.710Z,3.22
2018-02-03T14:55:07.378Z,3.28
2018-02-03T14:56:12.088Z,3.26
2018-02-03T14:57:16.897Z,3.21
2018-02-03T14:58:22.611Z,3.14
2018-02-03T14:59:27.510Z,2.98
2018-02-03T15:00:32.245Z,2.88
2018-02-03T15:01:37.329Z,2.83
2018-02-03T15:02:42.290Z,2.80
2018-02-03T15:03:47.419Z,2.79
2018-02-03T15:04:52.280Z,2.86
2018-02-03T15:05:56.953Z,2.84
2018-02-03T15:07:01.670Z,2.95
2018-02-03T15:08:07.140Z,3.01
2018-02-03T15:09:11.768Z,2.99
2018-02-03T15:10:16.455Z,2.85
2018-02-03T15:11:21.148Z,2.82
2018-02-03T15:12:25.827Z,2.73
2018-02-03T15:13:30.508Z,2.71
2018-02-03T15:14:35.964Z,2.69
2018-02-03T15:15:40.797Z,2.70
2018-02-03T15:16:45.593Z,2.71
2018-02-03T15:17:52.553Z,2.65
2018-02-03T15:18:57.238Z,2.68
2018-02-03T15:20:01.952Z,2.70
2018-02-03T15:21:07.070Z,2.70
2018-02-03T15:22:12.922Z,2.73
2018-02-03T15:23:17.752Z,2.71
2018-02-03T15:24:22.463Z,2.76
2018-02-03T15:25:27.153Z,2.84
2018-02-03T15:26:32.277Z,2.84
2018-02-03T15:27:37.518Z,2.77
2018-02-03T15:28:43.054Z,2.79
2018-02-03T15:29:47.952Z,2.71
2018-02-03T15:30:52.783Z,2.73
2018-02-03T15:31:57.729Z,2.73
2018-02-03T15:33:02.547Z,2.70
2018-02-03T15:34:07.837Z,2.78
2018-02-03T15:35:12.664Z,2.73
2018-02-03T15:36:17.607Z,2.67
2018-02-03T15:37:22.750Z,2.66
2018-02-03T15:38:28.245Z,2.70
2018-02-03T15:39:33.394Z,2.66
2018-02-03T15:40:38.737Z,2.55
2018-02-03T15:41:43.632Z,2.44
2018-02-03T15:42:48.523Z,2.50
2018-02-03T15:43:53.530Z,2.50
2018-02-03T15:44:58.392Z,2.43
2018-02-03T15:46:03.274Z,2.36
2018-02-03T15:47:08.544Z,2.31
2018-02-03T15:48:13.392Z,2.37
2018-02-03T15:49:18.335Z,2.39
2018-02-03T15:50:23.100Z,2.42
2018-02-03T15:51:27.933Z,2.46
2018-02-03T15:52:32.915Z,2.44
2018-02-03T15:53:38.888Z,2.37
2018-02-03T15:54:43.941Z,2.38
2018-02-03T15:55:48.823Z,2.36
2018-02-03T15:56:53.765Z,2.34
2018-02-03T15:57:58.835Z,2.38
2018-02-03T15:59:03.645Z,2.30
2018-02-03T16:00:09.050Z,2.31
2018-02-03T16:01:13.822Z,2.33
2018-02-03T16:02:19.059Z,2.34
2018-02-03T16:03:23.775Z,2.38
2018-02-03T16:04:28.518Z,2.38
2018-02-03T16:05:33.451Z,2.22
2018-02-03T16:06:39.144Z,2.21
2018-02-03T16:07:45.188Z,2.21
2018-02-03T16:08:50.290Z,2.18
2018-02-03T16:09:56.577Z,2.20
2018-02-03T16:11:02.265Z,2.14
2018-02-03T16:12:07.160Z,2.03
2018-02-03T16:13:12.645Z,2.06
2018-02-03T16:14:18.231Z,2.07
2018-02-03T16:15:24.676Z,1.97
2018-02-03T16:16:29.563Z,1.96
2018-02-03T16:17:34.708Z,2.00
2018-02-03T16:18:39.716Z,1.98
2018-02-03T16:19:44.777Z,1.97
2018-02-03T16:20:49.792Z,1.93
2018-02-03T16:21:54.646Z,1.97
2018-02-03T16:22:59.500Z,1.93
2018-02-03T16:24:04.300Z,1.91
2018-02-03T16:25:09.576Z,1.96
2018-02-03T16:26:14.320Z,1.96
2018-02-03T16:27:19.610Z,1.90
2018-02-03T16:28:24.650Z,1.86
2018-02-03T16:29:29.572Z,1.80
2018-02-03T16:30:34.466Z,1.78
2018-02-03T16:31:39.906Z,1.82
2018-02-03T16:32:44.790Z,1.89
2018-02-03T16:33:49.835Z,1.88
2018-02-03T16:34:54.906Z,1.88
2018-02-03T16:35:59.771Z,1.86
2018-02-03T16:37:04.548Z,1.80
2018-02-03T16:38:09.740Z,1.84
2018-02-03T16:39:15.882Z,1.85
2018-02-03T16:40:20.731Z,1.84
2018-02-03T16:41:25.513Z,1.83
2018-02-03T16:42:32.072Z,1.80
2018-02-03T16:43:37.213Z,1.75
2018-02-03T16:44:42.549Z,1.81
2018-02-03T16:45:47.312Z,1.69
2018-02-03T16:46:52.304Z,1.63
2018-02-03T16:47:56.996Z,1.66
2018-02-03T16:49:01.768Z,1.64
2018-02-03T16:50:06.853Z,1.64
2018-02-03T16:51:11.658Z,1.55
2018-02-03T16:52:16.458Z,1.53
2018-02-03T16:53:21.223Z,1.59
2018-02-03T16:54:25.997Z,1.54
2018-02-03T16:55:30.759Z,1.51
2018-02-03T16:56:40.061Z,1.51
2018-02-03T16:57:44.814Z,1.50
2018-02-03T16:58:49.727Z,1.51
2018-02-03T16:59:54.478Z,1.55
2018-02-03T17:00:59.195Z,1.59
2018-02-03T17:02:03.788Z,1.53
2018-02-03T17:03:08.622Z,1.49
2018-02-03T17:04:13.149Z,1.44
2018-02-03T17:05:17.876Z,1.44
2018-02-03T17:06:22.742Z,1.41
2018-02-03T17:07:28.586Z,1.40
2018-02-03T17:08:34.101Z,1.39
2018-02-03T17:09:39.417Z,1.43
2018-02-03T17:10:44.482Z,1.47
2018-02-03T17:11:49.360Z,1.52
2018-02-03T17:12:54.150Z,1.47
2018-02-03T17:13:59.878Z,1.45
2018-02-03T17:15:04.613Z,1.48
2018-02-03T17:16:10.394Z,1.47
2018-02-03T17:17:15.180Z,1.45
2018-02-03T17:18:19.961Z,1.49
2018-02-03T17:19:24.775Z,1.52
2018-02-03T17:20:30.517Z,1.44
2018-02-03T17:21:36.737Z,1.48
2018-02-03T17:22:44.868Z,1.62
2018-02-03T17:23:50.368Z,1.64
2018-02-03T17:24:55.864Z,1.62
2018-02-03T17:26:00.719Z,1.62
2018-02-03T17:27:06.142Z,1.56
2018-02-03T17:28:11.579Z,1.52
2018-02-03T17:29:19.215Z,1.50
2018-02-03T17:30:24.072Z,1.48
2018-02-03T17:31:28.993Z,1.49
2018-02-03T17:32:33.801Z,1.56
2018-02-03T17:33:38.558Z,1.58
2018-02-03T17:34:43.374Z,1.57
2018-02-03T17:35:48.571Z,1.46
2018-02-03T17:36:57.916Z,1.49
2018-02-03T17:39:05.336Z,1.50
2018-02-03T17:40:12.137Z,1.48
2018-02-03T17:41:17.416Z,1.44
2018-02-03T17:42:24.618Z,1.47
2018-02-03T17:43:31.687Z,1.52
2018-02-03T17:44:38.921Z,1.50
2018-02-03T17:45:49.573Z,1.51
2018-02-03T17:47:10.621Z,1.51
2018-02-03T17:48:17.210Z,1.42
2018-02-03T17:49:24.445Z,1.44
2018-02-03T17:50:31.357Z,1.42
2018-02-03T17:51:36.340Z,1.35
2018-02-03T17:52:41.354Z,1.40
2018-02-03T17:53:46.678Z,1.40
2018-02-03T17:54:52.955Z,1.46
2018-02-03T17:56:01.907Z,1.44
2018-02-03T17:58:10.020Z,1.36
2018-02-03T17:59:14.914Z,1.35
2018-02-03T18:00:20.820Z,1.30
2018-02-03T18:01:28.522Z,1.36
2018-02-03T18:02:37.981Z,1.29
2018-02-03T18:03:47.154Z,1.35
2018-02-03T18:04:55.207Z,1.30
2018-02-03T18:06:02.404Z,1.25
2018-02-03T18:07:10.013Z,1.24
2018-02-03T18:08:17.260Z,1.21
2018-02-03T18:09:25.344Z,1.20
2018-02-03T18:10:33.035Z,1.26
2018-02-03T18:11:40.310Z,1.21
2018-02-03T18:12:48.219Z,1.20
2018-02-03T18:13:55.287Z,1.25
2018-02-03T18:15:02.023Z,1.14
2018-02-03T18:16:07.488Z,1.13
2018-02-03T18:17:13.340Z,1.13
2018-02-03T18:18:20.093Z,1.13
2018-02-03T18:19:28.892Z,1.11
2018-02-03T18:20:40.236Z,1.07
2018-02-03T18:21:51.395Z,1.10
2018-02-03T18:23:02.195Z,1.07
2018-02-03T18:24:12.651Z,1.04
2018-02-03T18:25:20.673Z,1.10
2018-02-03T18:26:29.158Z,1.16
2018-02-03T18:27:40.418Z,1.07
2018-02-03T18:28:48.592Z,1.10
2018-02-03T18:29:57.345Z,1.03
2018-02-03T18:31:06.682Z,1.05
2018-02-03T18:32:15.065Z,1.08
2018-02-03T18:33:21.913Z,1.15
2018-02-03T18:34:29.110Z,1.21
2018-02-03T18:35:35.969Z,1.32
2018-02-03T18:36:42.563Z,1.38
2018-02-03T18:37:53.637Z,1.33
2018-02-03T18:39:05.212Z,1.34
2018-02-03T18:40:12.661Z,1.39
2018-02-03T18:41:21.287Z,1.32
2018-02-03T18:42:28.524Z,1.13
2018-02-03T18:43:37.455Z,1.03
2018-02-03T18:44:45.824Z,1.11
2018-02-03T18:45:53.253Z,1.12
2018-02-03T18:47:02.196Z,1.15
2018-02-03T18:48:13.862Z,1.15
2018-02-03T18:49:24.724Z,1.13
2018-02-03T18:50:36.264Z,1.05
2018-02-03T18:51:45.048Z,0.93
2018-02-03T18:52:53.832Z,0.97
2018-02-03T18:54:03.353Z,0.92
2018-02-03T18:55:12.219Z,0.90
2018-02-03T18:56:23.176Z,0.92
2018-02-03T18:57:31.478Z,1.02
2018-02-03T18:58:42.261Z,1.05
2018-02-03T18:59:50.366Z,1.07
2018-02-03T19:00:59.962Z,1.13
2018-02-03T19:02:06.024Z,1.17
2018-02-03T19:03:14.121Z,1.25
2018-02-03T19:04:23.984Z,1.30
2018-02-03T19:05:32.269Z,1.34
2018-02-03T19:06:43.129Z,1.36
2018-02-03T19:07:52.589Z,1.38
2018-02-03T19:09:05.672Z,1.38
2018-02-03T19:10:16.055Z,1.42
2018-02-03T19:11:25.482Z,1.44
2018-02-03T19:12:34.705Z,1.41
2018-02-03T19:13:52.764Z,1.37
2018-02-03T19:15:03.746Z,1.38
2018-02-03T19:16:14.286Z,1.43
2018-02-03T19:17:24.861Z,1.45
2018-02-03T19:18:36.609Z,1.46
2018-02-03T19:19:46.788Z,1.46
2018-02-03T19:20:56.677Z,1.48
2018-02-03T19:22:07.084Z,1.40
2018-02-03T19:23:17.337Z,1.39
2018-02-03T19:24:26.606Z,1.40
2018-02-03T19:25:39.130Z,1.38
2018-02-03T19:26:46.543Z,1.31
2018-02-03T19:27:55.984Z,1.36
2018-02-03T19:29:05.229Z,1.39
2018-02-03T19:30:18.434Z,1.36
2018-02-03T19:31:30.725Z,1.37
2018-02-03T19:32:41.031Z,1.38
2018-02-03T19:33:52.180Z,1.36
2018-02-03T19:35:04.081Z,1.40
2018-02-03T19:36:14.464Z,1.47
2018-02-03T19:37:28.943Z,1.51
2018-02-03T19:38:38.949Z,1.51
2018-02-03T19:39:49.965Z,1.45
2018-02-03T19:40:59.927Z,1.48
2018-02-03T19:42:08.954Z,1.52
2018-02-03T19:44:37.238Z,1.57
2018-02-03T19:45:51.671Z,1.49
2018-02-03T19:47:00.598Z,1.45
2018-02-03T19:48:11.362Z,1.48
2018-02-03T19:49:22.349Z,1.53
2018-02-03T19:50:31.707Z,1.58
2018-02-03T19:51:40.016Z,1.60
2018-02-03T19:52:47.620Z,1.57
2018-02-03T19:53:56.045Z,1.57
2018-02-03T19:55:06.180Z,1.57
2018-02-03T19:56:14.896Z,1.60
2018-02-03T19:57:24.149Z,1.65
2018-02-03T19:58:36.863Z,1.72
2018-02-03T19:59:46.759Z,1.76
2018-02-03T20:00:56.350Z,1.72
2018-02-03T20:02:08.238Z,1.70
2018-02-03T20:03:17.526Z,1.66
2018-02-03T20:04:27.571Z,1.67
2018-02-03T20:05:42.935Z,1.72
2018-02-03T20:06:55.067Z,1.76
2018-02-03T20:08:05.921Z,1.77
2018-02-03T20:09:20.365Z,1.78
2018-02-03T20:10:34.943Z,1.78
2018-02-03T20:11:50.177Z,1.71
2018-02-03T20:13:01.642Z,1.64
2018-02-03T20:14:12.855Z,1.65
2018-02-03T20:15:25.256Z,1.47
2018-02-03T20:16:34.815Z,1.39
2018-02-03T20:17:50.044Z,1.42
2018-02-03T20:19:00.175Z,1.48
2018-02-03T20:20:10.304Z,1.49
2018-02-03T20:21:21.828Z,1.53
2018-02-03T20:22:33.460Z,1.54
2018-02-03T20:24:05.054Z,1.57
2018-02-03T20:25:15.794Z,1.60
2018-02-03T20:26:32.364Z,1.63
2018-02-03T20:27:41.798Z,1.69
2018-02-03T20:28:56.185Z,1.70
2018-02-03T20:30:06.048Z,1.61
2018-02-03T20:31:15.066Z,1.63
2018-02-03T20:32:30.093Z,1.66
2018-02-03T20:33:39.112Z,1.64
2018-02-03T20:34:50.667Z,1.66
2018-02-03T20:35:58.530Z,1.60
2018-02-03T20:37:05.455Z,1.44
2018-02-03T20:38:15.892Z,1.40
2018-02-03T20:39:25.501Z,1.41
2018-02-03T20:40:36.369Z,1.43
2018-02-03T20:41:45.037Z,1.45
2018-02-03T20:42:54.076Z,1.46
2018-02-03T20:44:04.162Z,1.51
2018-02-03T20:45:13.712Z,1.43
2018-02-03T20:46:25.824Z,1.41
2018-02-03T20:47:38.431Z,1.39
2018-02-03T20:48:49.008Z,1.37
2018-02-03T20:49:57.731Z,1.34
2018-02-03T20:51:08.814Z,1.40
2018-02-03T20:52:17.218Z,1.32
2018-02-03T20:53:25.165Z,1.26
2018-02-03T20:54:36.469Z,1.24
2018-02-03T20:55:45.978Z,1.16
2018-02-03T20:56:56.078Z,1.19
2018-02-03T20:58:06.019Z,1.27
2018-02-03T20:59:18.846Z,1.33
2018-02-03T21:00:28.975Z,1.30
2018-02-03T21:01:37.201Z,1.34
2018-02-03T21:02:52.408Z,1.36